createdAt,value
2018-07-21T00:00:18.216Z,4.23
2018-07-21T00:02:46.461Z,6.03
2018-07-21T00:05:14.716Z,3.77
2018-07-21T00:07:42.950Z,3.67
2018-07-21T00:10:11.168Z,6.33
2018-07-21T00:12:39.502Z,4.70
2018-07-21T00:15:07.697Z,5.37
2018-07-21T00:17:36.016Z,6.53
2018-07-21T00:20:04.581Z,8.40
2018-07-21T00:22:32.846Z,9.63
2018-07-21T00:25:01.136Z,6.30
2018-07-21T00:27:29.402Z,4.23
2018-07-21T00:29:57.560Z,3.17
2018-07-21T00:32:25.788Z,3.70
2018-07-21T00:34:54.068Z,3.40
2018-07-21T00:37:22.341Z,4.87
2018-07-21T00:39:50.464Z,4.63
2018-07-21T00:42:18.699Z,6.07
2018-07-21T00:44:46.862Z,3.73
2018-07-21T00:47:15.054Z,4.23
2018-07-21T00:49:43.277Z,5.07
2018-07-21T00:52:11.433Z,5.17
2018-07-21T00:54:39.558Z,5.37
2018-07-21T00:57:07.725Z,3.30
2018-07-21T00:59:35.894Z,5.87
2018-07-21T01:02:04.056Z,5.27
2018-07-21T01:04:32.282Z,7.43
2018-07-21T01:07:00.524Z,12.57
2018-07-21T01:09:28.888Z,9.33
2018-07-21T01:11:57.076Z,5.80
2018-07-21T01:14:25.302Z,6.37
2018-07-21T01:16:53.438Z,6.07
2018-07-21T01:19:21.594Z,8.00
2018-07-21T01:21:49.735Z,8.90
2018-07-21T01:24:17.861Z,5.47
2018-07-21T01:26:46.063Z,5.97
2018-07-21T01:29:14.240Z,6.10
2018-07-21T01:31:42.388Z,7.00
2018-07-21T01:34:10.584Z,5.43
2018-07-21T01:36:38.795Z,4.37
2018-07-21T01:39:08.731Z,5.60
2018-07-21T01:41:36.979Z,3.93
2018-07-21T01:44:05.185Z,6.70
2018-07-21T01:46:33.487Z,9.87
2018-07-21T01:49:01.660Z,5.07
2018-07-21T01:51:29.980Z,4.57
2018-07-21T01:53:58.205Z,6.30
2018-07-21T01:56:26.456Z,5.00
2018-07-21T01:58:54.840Z,5.23
2018-07-21T02:01:23.309Z,9.50
2018-07-21T02:03:51.545Z,7.73
2018-07-21T02:06:19.795Z,7.87
2018-07-21T02:08:48.039Z,4.17
2018-07-21T02:11:16.441Z,7.57
2018-07-21T02:13:45.010Z,7.53
2018-07-21T02:16:13.372Z,4.97
2018-07-21T02:18:41.781Z,5.03
2018-07-21T02:21:09.912Z,4.63
2018-07-21T02:23:38.145Z,4.60
2018-07-21T02:26:06.369Z,4.90
2018-07-21T02:28:34.707Z,5.10
2018-07-21T02:31:02.916Z,7.00
2018-07-21T02:33:31.113Z,5.27
2018-07-21T02:35:59.438Z,5.03
2018-07-21T02:38:27.628Z,4.90
2018-07-21T02:40:55.800Z,4.47
2018-07-21T02:43:23.991Z,4.90
2018-07-21T02:45:52.251Z,5.33
2018-07-21T02:48:20.475Z,7.07
2018-07-21T02:50:48.625Z,10.77
2018-07-21T02:53:16.819Z,8.70
2018-07-21T02:55:45.129Z,7.30
2018-07-21T02:58:13.422Z,4.87
2018-07-21T03:00:41.600Z,5.03
2018-07-21T03:03:09.766Z,6.03
2018-07-21T03:05:37.986Z,9.70
2018-07-21T03:08:09.442Z,6.60
2018-07-21T03:10:37.764Z,7.27
2018-07-21T03:13:06.059Z,8.23
2018-07-21T03:15:34.249Z,6.27
2018-07-21T03:18:02.574Z,6.97
2018-07-21T03:20:30.768Z,5.30
2018-07-21T03:22:58.969Z,5.40
2018-07-21T03:25:27.222Z,5.83
2018-07-21T03:27:55.520Z,5.83
2018-07-21T03:30:23.731Z,7.30
2018-07-21T03:32:51.937Z,5.73
2018-07-21T03:35:20.219Z,8.07
2018-07-21T03:37:48.387Z,12.07
2018-07-21T03:40:16.573Z,9.10
2018-07-21T03:42:44.739Z,7.33
2018-07-21T03:45:12.979Z,5.93
2018-07-21T03:47:41.351Z,7.03
2018-07-21T03:50:09.493Z,6.17
2018-07-21T03:52:37.681Z,5.07
2018-07-21T03:55:06.069Z,4.77
2018-07-21T03:57:34.241Z,6.17
2018-07-21T04:00:02.526Z,6.23
2018-07-21T04:02:30.756Z,7.63
2018-07-21T04:04:58.943Z,6.87
2018-07-21T04:07:27.168Z,6.43
2018-07-21T04:09:55.309Z,6.13
2018-07-21T04:12:23.442Z,5.50
2018-07-21T04:14:51.649Z,5.00
2018-07-21T04:17:27.036Z,4.80
2018-07-21T04:19:56.061Z,4.47
2018-07-21T04:22:25.085Z,4.00
2018-07-21T04:24:53.494Z,6.63
2018-07-21T04:27:22.128Z,4.53
2018-07-21T04:29:50.466Z,5.07
2018-07-21T04:32:18.902Z,5.47
2018-07-21T04:34:47.116Z,4.20
2018-07-21T04:37:15.278Z,4.40
2018-07-21T04:39:43.510Z,4.30
2018-07-21T04:42:12.293Z,4.83
2018-07-21T04:44:40.488Z,5.90
2018-07-21T04:47:08.655Z,7.77
2018-07-21T04:49:36.878Z,4.53
2018-07-21T04:52:05.051Z,4.55
2018-07-21T04:54:33.226Z,4.17
2018-07-21T04:57:01.447Z,4.42
2018-07-21T04:59:29.880Z,3.45
2018-07-21T05:01:58.024Z,3.37
2018-07-21T05:04:26.295Z,3.62
2018-07-21T05:06:54.709Z,5.55
2018-07-21T05:09:22.884Z,5.95
2018-07-21T05:11:51.057Z,5.08
2018-07-21T05:14:19.280Z,5.40
2018-07-21T05:16:47.453Z,3.22
2018-07-21T05:19:15.612Z,3.92
2018-07-21T05:21:43.777Z,3.90
2018-07-21T05:24:11.928Z,3.62
2018-07-21T05:26:40.126Z,3.40
2018-07-21T05:29:08.392Z,3.77
2018-07-21T05:31:36.644Z,4.28
2018-07-21T05:34:04.949Z,3.52
2018-07-21T05:36:33.126Z,3.70
2018-07-21T05:39:01.400Z,3.17
2018-07-21T05:41:29.849Z,4.72
2018-07-21T05:43:58.049Z,3.27
2018-07-21T05:46:26.246Z,3.95
2018-07-21T05:48:54.376Z,3.95
2018-07-21T05:51:22.682Z,3.95
2018-07-21T05:53:51.201Z,4.15
2018-07-21T05:56:19.679Z,4.08
2018-07-21T05:58:47.843Z,2.98
2018-07-21T06:01:16.026Z,3.17
2018-07-21T06:03:44.805Z,3.37
2018-07-21T06:06:13.019Z,3.10
2018-07-21T06:08:41.460Z,3.35
2018-07-21T06:11:09.597Z,3.27
2018-07-21T06:13:37.811Z,3.60
2018-07-21T06:16:06.032Z,3.10
2018-07-21T06:18:34.248Z,4.62
2018-07-21T06:21:02.613Z,3.60
2018-07-21T06:23:30.935Z,3.20
2018-07-21T06:25:59.282Z,4.40
2018-07-21T06:28:27.467Z,3.58
2018-07-21T06:30:56.637Z,6.17
2018-07-21T06:33:24.817Z,2.92
2018-07-21T06:35:53.011Z,5.37
2018-07-21T06:38:22.750Z,4.12
2018-07-21T06:40:50.988Z,3.33
2018-07-21T06:43:19.210Z,4.42
2018-07-21T06:45:48.039Z,3.55
2018-07-21T06:48:16.286Z,3.20
2018-07-21T06:50:44.562Z,3.42
2018-07-21T06:53:12.700Z,3.17
2018-07-21T06:55:40.965Z,3.95
2018-07-21T06:58:09.351Z,4.08
2018-07-21T07:00:37.567Z,3.87
2018-07-21T07:03:05.763Z,3.40
2018-07-21T07:05:33.947Z,3.75
2018-07-21T07:08:02.190Z,3.40
2018-07-21T07:10:30.396Z,4.35
2018-07-21T07:12:58.734Z,5.33
2018-07-21T07:15:26.951Z,3.62
2018-07-21T07:17:55.158Z,3.42
2018-07-21T07:20:23.381Z,3.55
2018-07-21T07:22:51.653Z,3.20
2018-07-21T07:25:19.892Z,2.67
2018-07-21T07:27:49.351Z,3.65
2018-07-21T07:30:17.572Z,3.67
2018-07-21T07:32:45.817Z,3.50
2018-07-21T07:35:14.035Z,3.27
2018-07-21T07:37:42.189Z,3.30
2018-07-21T07:40:10.440Z,3.80
2018-07-21T07:42:38.632Z,6.87
2018-07-21T07:45:06.913Z,4.40
2018-07-21T07:47:35.196Z,6.20
2018-07-21T07:50:03.622Z,3.15
2018-07-21T07:52:31.796Z,4.58
2018-07-21T07:54:59.992Z,5.62
2018-07-21T07:57:28.160Z,3.17
2018-07-21T07:59:56.368Z,4.00
2018-07-21T08:02:24.598Z,3.10
2018-07-21T08:04:52.905Z,3.00
2018-07-21T08:07:21.329Z,5.65
2018-07-21T08:09:49.468Z,3.27
2018-07-21T08:12:17.658Z,3.55
2018-07-21T08:14:45.853Z,3.52
2018-07-21T08:17:14.096Z,4.65
2018-07-21T08:19:42.314Z,4.58
2018-07-21T08:22:10.628Z,4.08
2018-07-21T08:24:38.895Z,4.37
2018-07-21T08:27:07.201Z,4.10
2018-07-21T08:29:35.484Z,4.95
2018-07-21T08:32:03.821Z,3.92
2018-07-21T08:34:32.182Z,8.05
2018-07-21T08:37:00.450Z,6.55
2018-07-21T08:39:28.745Z,3.47
2018-07-21T08:41:57.668Z,4.08
2018-07-21T08:44:25.872Z,3.30
2018-07-21T08:46:54.089Z,4.20
2018-07-21T08:49:22.317Z,5.37
2018-07-21T08:51:50.734Z,3.80
2018-07-21T08:54:18.966Z,4.45
2018-07-21T08:56:47.157Z,5.15
2018-07-21T08:59:15.362Z,4.25
2018-07-21T09:01:43.543Z,4.70
2018-07-21T09:04:12.801Z,4.80
2018-07-21T09:06:40.977Z,3.77
2018-07-21T09:09:11.109Z,4.62
2018-07-21T09:11:39.587Z,5.75
2018-07-21T09:14:07.959Z,3.52
2018-07-21T09:16:36.456Z,4.90
2018-07-21T09:19:04.869Z,6.20
2018-07-21T09:21:33.246Z,3.98
2018-07-21T09:24:01.449Z,5.75
2018-07-21T09:26:29.642Z,4.55
2018-07-21T09:28:59.693Z,3.83
2018-07-21T09:31:27.898Z,4.08
2018-07-21T09:33:56.144Z,4.85
2018-07-21T09:36:24.423Z,3.85
2018-07-21T09:38:52.645Z,4.12
2018-07-21T09:41:20.925Z,4.28
2018-07-21T09:43:49.249Z,7.80
2018-07-21T09:46:17.508Z,5.58
2018-07-21T09:48:45.702Z,6.50
2018-07-21T09:51:13.914Z,4.67
2018-07-21T09:53:42.880Z,4.37
2018-07-21T09:56:11.100Z,4.00
2018-07-21T09:58:39.638Z,4.30
2018-07-21T10:01:07.800Z,4.42
2018-07-21T10:06:10.548Z,4.65
2018-07-21T10:08:38.802Z,4.10
2018-07-21T10:11:07.133Z,4.17
2018-07-21T10:13:35.497Z,4.53
2018-07-21T10:16:03.747Z,4.83
2018-07-21T10:18:31.920Z,4.67
2018-07-21T10:21:00.092Z,4.08
2018-07-21T10:23:28.437Z,4.90
2018-07-21T10:26:02.059Z,4.60
2018-07-21T10:28:35.667Z,4.40
2018-07-21T10:31:03.861Z,5.12
2018-07-21T10:33:32.640Z,5.22
2018-07-21T10:36:00.901Z,4.60
2018-07-21T10:38:29.073Z,5.45
2018-07-21T10:40:57.799Z,4.25
2018-07-21T10:43:26.045Z,4.33
2018-07-21T10:45:54.376Z,4.62
2018-07-21T10:48:22.668Z,4.78
2018-07-21T10:50:51.028Z,5.37
2018-07-21T10:53:20.914Z,4.45
2018-07-21T10:55:50.075Z,4.72
2018-07-21T10:58:18.420Z,5.20
2018-07-21T11:00:46.705Z,4.78
2018-07-21T11:03:14.919Z,4.53
2018-07-21T11:05:43.245Z,4.83
2018-07-21T11:08:11.564Z,4.70
2018-07-21T11:10:39.842Z,4.37
2018-07-21T11:13:08.162Z,8.75
2018-07-21T11:15:36.591Z,6.37
2018-07-21T11:18:04.818Z,5.20
2018-07-21T11:20:33.983Z,4.97
2018-07-21T11:23:02.481Z,6.85
2018-07-21T11:25:30.649Z,5.80
2018-07-21T11:27:59.525Z,5.65
2018-07-21T11:30:27.805Z,5.17
2018-07-21T11:32:56.039Z,5.05
2018-07-21T11:35:24.243Z,5.20
2018-07-21T11:37:52.581Z,4.78
2018-07-21T11:40:20.834Z,5.17
2018-07-21T11:42:49.057Z,6.35
2018-07-21T11:45:17.323Z,5.80
2018-07-21T11:47:45.532Z,6.03
2018-07-21T11:50:13.728Z,6.15
2018-07-21T11:52:41.918Z,5.05
2018-07-21T11:55:10.126Z,5.12
2018-07-21T11:57:38.338Z,5.05
2018-07-21T12:00:06.679Z,5.50
2018-07-21T12:02:35.081Z,5.60
2018-07-21T12:05:03.366Z,5.03
2018-07-21T12:07:31.633Z,6.17
2018-07-21T12:10:00.720Z,5.12
2018-07-21T12:12:28.959Z,5.50
2018-07-21T12:14:57.205Z,6.85
2018-07-21T12:17:25.413Z,7.47
2018-07-21T12:19:53.679Z,6.03
2018-07-21T12:22:21.887Z,5.75
2018-07-21T12:24:50.073Z,5.53
2018-07-21T12:27:18.304Z,5.75
2018-07-21T12:29:46.529Z,5.00
2018-07-21T12:32:14.828Z,5.25
2018-07-21T12:34:43.013Z,7.85
2018-07-21T12:37:11.355Z,5.70
2018-07-21T12:39:39.674Z,5.42
2018-07-21T12:42:08.059Z,5.50
2018-07-21T12:44:36.280Z,5.97
2018-07-21T12:47:04.645Z,6.03
2018-07-21T12:49:32.821Z,5.83
2018-07-21T12:52:01.110Z,5.45
2018-07-21T12:54:29.390Z,4.87
2018-07-21T12:56:57.695Z,5.83
2018-07-21T12:59:25.850Z,5.47
2018-07-21T13:01:54.059Z,5.50
2018-07-21T13:04:22.248Z,6.83
2018-07-21T13:06:50.570Z,6.33
2018-07-21T13:09:18.824Z,5.95
2018-07-21T13:11:47.147Z,5.73
2018-07-21T13:14:15.310Z,5.83
2018-07-21T13:16:43.485Z,7.33
2018-07-21T13:19:11.788Z,7.70
2018-07-21T13:21:39.960Z,7.95
2018-07-21T13:24:08.358Z,10.03
2018-07-21T13:26:36.814Z,6.42
2018-07-21T13:29:05.121Z,6.78
2018-07-21T13:31:34.013Z,7.33
2018-07-21T13:34:02.261Z,10.38
2018-07-21T13:36:30.541Z,5.90
2018-07-21T13:38:58.775Z,8.38
2018-07-21T13:41:27.220Z,7.40
2018-07-21T13:43:55.437Z,7.60
2018-07-21T13:46:23.640Z,7.95
2018-07-21T13:48:52.444Z,7.80
2018-07-21T13:51:20.613Z,6.33
2018-07-21T13:53:48.855Z,7.00
2018-07-21T13:56:17.205Z,9.60
2018-07-21T13:58:45.355Z,7.50
2018-07-21T14:01:15.541Z,9.23
2018-07-21T14:03:43.721Z,9.20
2018-07-21T14:06:11.966Z,7.60
2018-07-21T14:08:40.214Z,7.62
2018-07-21T14:11:08.532Z,6.22
2018-07-21T14:13:37.766Z,6.53
2018-07-21T14:16:06.802Z,7.67
2018-07-21T14:18:35.025Z,9.53
2018-07-21T14:21:03.185Z,6.15
2018-07-21T14:23:31.371Z,6.17
2018-07-21T14:25:59.685Z,8.08
2018-07-21T14:28:28.019Z,6.35
2018-07-21T14:30:56.452Z,6.25
2018-07-21T14:33:24.659Z,9.45
2018-07-21T14:35:52.946Z,6.22
2018-07-21T14:38:21.129Z,7.47
2018-07-21T14:40:49.289Z,9.65
2018-07-21T14:43:17.540Z,11.83
2018-07-21T14:45:45.689Z,9.53
2018-07-21T14:48:13.849Z,6.45
2018-07-21T14:50:42.077Z,7.10
2018-07-21T14:53:10.513Z,9.25
2018-07-21T14:55:38.992Z,8.65
2018-07-21T14:58:07.158Z,8.23
2018-07-21T15:00:35.385Z,8.18
2018-07-21T15:03:03.589Z,6.55
2018-07-21T15:05:31.813Z,8.48
2018-07-21T15:08:01.026Z,7.70
2018-07-21T15:10:29.357Z,6.87
2018-07-21T15:12:57.676Z,7.72
2018-07-21T15:15:25.945Z,6.92
2018-07-21T15:17:54.179Z,6.55
2018-07-21T15:20:22.386Z,7.25
2018-07-21T15:22:50.726Z,7.87
2018-07-21T15:25:18.988Z,7.65
2018-07-21T15:27:47.162Z,7.03
2018-07-21T15:30:15.280Z,7.80
2018-07-21T15:32:43.557Z,7.47
2018-07-21T15:35:11.816Z,6.95
2018-07-21T15:37:39.973Z,9.45
2018-07-21T15:40:08.159Z,6.75
2018-07-21T15:42:36.534Z,6.87
2018-07-21T15:45:05.036Z,5.78
2018-07-21T15:47:33.465Z,8.80
2018-07-21T15:50:01.719Z,8.43
2018-07-21T15:52:30.431Z,7.92
2018-07-21T15:54:58.606Z,10.70
2018-07-21T15:57:27.048Z,8.68
2018-07-21T15:59:55.377Z,7.60
2018-07-21T16:02:23.558Z,9.17
2018-07-21T16:04:51.718Z,10.68
2018-07-21T16:07:19.886Z,10.35
2018-07-21T16:09:48.081Z,9.17
2018-07-21T16:12:16.288Z,7.80
2018-07-21T16:14:44.659Z,10.98
2018-07-21T16:17:12.863Z,6.70
2018-07-21T16:19:41.178Z,6.63
2018-07-21T16:22:09.381Z,7.23
2018-07-21T16:24:37.723Z,6.90
2018-07-21T16:27:05.938Z,6.67
2018-07-21T16:29:34.277Z,6.80
2018-07-21T16:32:02.461Z,6.60
2018-07-21T16:34:30.757Z,6.83
2018-07-21T16:36:58.950Z,7.20
2018-07-21T16:39:27.141Z,6.87
2018-07-21T16:41:55.452Z,8.17
2018-07-21T16:44:23.692Z,9.77
2018-07-21T16:46:52.694Z,7.27
2018-07-21T16:49:20.921Z,10.80
2018-07-21T16:51:49.114Z,13.07
2018-07-21T16:54:17.339Z,9.30
2018-07-21T16:56:45.602Z,14.33
2018-07-21T16:59:13.905Z,19.13
2018-07-21T17:01:42.226Z,12.83
2018-07-21T17:04:10.359Z,10.50
2018-07-21T17:06:38.513Z,10.20
2018-07-21T17:09:08.039Z,10.60
2018-07-21T17:11:36.314Z,9.43
2018-07-21T17:14:04.505Z,9.00
2018-07-21T17:16:32.828Z,10.33
2018-07-21T17:19:01.847Z,10.23
2018-07-21T17:21:30.045Z,10.10
2018-07-21T17:26:32.808Z,7.40
2018-07-21T17:29:01.088Z,7.20
2018-07-21T17:31:29.275Z,9.67
2018-07-21T17:33:57.433Z,8.10
2018-07-21T17:36:25.632Z,6.77
2018-07-21T17:38:53.846Z,8.40
2018-07-21T17:41:22.220Z,8.80
2018-07-21T17:43:50.420Z,8.57
2018-07-21T17:46:18.876Z,6.90
2018-07-21T17:48:47.144Z,7.77
2018-07-21T17:51:15.285Z,5.63
2018-07-21T17:53:43.478Z,6.93
2018-07-21T17:56:11.658Z,7.53
2018-07-21T17:58:39.927Z,6.17
2018-07-21T18:01:08.190Z,6.57
2018-07-21T18:03:36.430Z,5.97
2018-07-21T18:06:04.583Z,8.67
2018-07-21T18:08:32.763Z,9.03
2018-07-21T18:11:00.924Z,6.33
2018-07-21T18:13:29.179Z,8.37
2018-07-21T18:15:57.549Z,6.10
2018-07-21T18:18:25.746Z,7.63
2018-07-21T18:20:53.979Z,6.77
2018-07-21T18:23:22.248Z,6.87
2018-07-21T18:25:50.388Z,7.77
2018-07-21T18:28:18.824Z,7.73
2018-07-21T18:30:47.015Z,10.30
2018-07-21T18:33:15.192Z,7.77
2018-07-21T18:35:43.734Z,6.53
2018-07-21T18:38:11.903Z,7.97
2018-07-21T18:40:40.067Z,6.47
2018-07-21T18:43:08.346Z,7.80
2018-07-21T18:45:36.550Z,7.80
2018-07-21T18:48:04.801Z,7.80
2018-07-21T18:50:33.026Z,9.13
2018-07-21T18:53:01.335Z,9.30
2018-07-21T18:55:29.616Z,8.57
2018-07-21T18:57:57.797Z,7.33
2018-07-21T19:00:25.989Z,7.73
2018-07-21T19:02:54.232Z,6.83
2018-07-21T19:05:22.556Z,10.20
2018-07-21T19:07:50.774Z,7.10
2018-07-21T19:10:19.223Z,6.60
2018-07-21T19:12:47.392Z,8.13
2018-07-21T19:15:21.195Z,6.57
2018-07-21T19:17:49.692Z,7.37
2018-07-21T19:20:23.183Z,6.53
2018-07-21T19:22:51.416Z,6.70
2018-07-21T19:25:24.931Z,6.53
2018-07-21T19:27:53.392Z,6.97
2018-07-21T19:30:21.876Z,7.80
2018-07-21T19:32:55.466Z,6.63
2018-07-21T19:35:23.633Z,7.00
2018-07-21T19:37:51.880Z,7.83
2018-07-21T19:40:20.395Z,8.23
2018-07-21T19:42:49.140Z,8.00
2018-07-21T19:45:17.362Z,8.73
2018-07-21T19:47:45.564Z,8.23
2018-07-21T19:50:13.887Z,8.83
2018-07-21T19:52:42.258Z,9.57
2018-07-21T19:55:10.712Z,6.87
2018-07-21T19:57:39.091Z,9.20
2018-07-21T20:00:07.464Z,7.97
2018-07-21T20:02:35.995Z,8.30
2018-07-21T20:05:04.216Z,8.90
2018-07-21T20:07:32.402Z,7.83
2018-07-21T20:10:00.762Z,7.27
2018-07-21T20:12:29.059Z,6.27
2018-07-21T20:14:57.280Z,9.80
2018-07-21T20:17:25.503Z,7.37
2018-07-21T20:19:54.309Z,7.90
2018-07-21T20:22:22.501Z,11.73
2018-07-21T20:24:50.651Z,8.27
2018-07-21T20:27:18.890Z,6.83
2018-07-21T20:29:47.234Z,7.77
2018-07-21T20:32:15.418Z,8.30
2018-07-21T20:34:43.618Z,8.57
2018-07-21T20:37:11.926Z,6.70
2018-07-21T20:39:40.300Z,7.83
2018-07-21T20:42:08.577Z,6.80
2018-07-21T20:44:36.883Z,7.27
2018-07-21T20:47:05.044Z,7.60
2018-07-21T20:49:33.231Z,7.83
2018-07-21T20:52:01.574Z,6.83
2018-07-21T20:54:29.799Z,6.50
2018-07-21T20:56:58.250Z,7.93
2018-07-21T20:59:26.418Z,7.90
2018-07-21T21:01:54.581Z,6.57
2018-07-21T21:04:22.772Z,8.27
2018-07-21T21:06:51.160Z,10.00
2018-07-21T21:09:19.299Z,6.57
2018-07-21T21:11:47.558Z,8.23
2018-07-21T21:14:15.959Z,7.33
2018-07-21T21:16:44.112Z,7.47
2018-07-21T21:19:12.337Z,7.50
2018-07-21T21:21:40.543Z,7.33
2018-07-21T21:24:08.784Z,6.53
2018-07-21T21:26:36.995Z,6.57
2018-07-21T21:29:05.323Z,7.60
2018-07-21T21:31:33.534Z,7.13
2018-07-21T21:34:01.812Z,7.37
2018-07-21T21:36:30.064Z,7.40
2018-07-21T21:38:58.248Z,6.27
2018-07-21T21:41:26.405Z,6.10
2018-07-21T21:43:54.627Z,9.10
2018-07-21T21:46:22.805Z,8.60
2018-07-21T21:48:51.040Z,9.20
2018-07-21T21:51:19.285Z,7.13
2018-07-21T21:53:48.192Z,6.53
2018-07-21T21:56:16.394Z,7.87
2018-07-21T21:58:44.667Z,8.07
2018-07-21T22:01:13.676Z,7.93
2018-07-21T22:03:42.185Z,6.80
2018-07-21T22:06:10.519Z,6.03
2018-07-21T22:08:38.722Z,6.30
2018-07-21T22:11:07.101Z,5.60
2018-07-21T22:13:35.290Z,7.00
2018-07-21T22:16:03.539Z,7.13
2018-07-21T22:18:31.877Z,6.47
2018-07-21T22:21:00.069Z,6.50
2018-07-21T22:23:28.623Z,7.20
2018-07-21T22:25:56.874Z,9.47
2018-07-21T22:28:25.535Z,6.23
2018-07-21T22:30:53.779Z,7.00
2018-07-21T22:33:21.992Z,7.17
2018-07-21T22:35:50.963Z,6.73
2018-07-21T22:38:19.147Z,7.43
2018-07-21T22:40:47.322Z,6.87
2018-07-21T22:43:15.643Z,6.70
2018-07-21T22:45:43.841Z,8.03
2018-07-21T22:48:12.187Z,6.77
2018-07-21T22:50:40.384Z,7.63
2018-07-21T22:53:08.661Z,8.90
2018-07-21T22:55:36.840Z,5.90
2018-07-21T22:58:05.123Z,7.50
2018-07-21T23:00:33.288Z,7.37
2018-07-21T23:03:01.577Z,7.00
2018-07-21T23:05:29.826Z,7.43
2018-07-21T23:07:58.079Z,7.70
2018-07-21T23:10:26.327Z,7.70
2018-07-21T23:12:54.551Z,6.17
2018-07-21T23:15:22.752Z,6.53
2018-07-21T23:17:50.992Z,8.43
2018-07-21T23:20:19.605Z,6.37
2018-07-21T23:22:47.793Z,6.00
2018-07-21T23:25:16.465Z,5.93
2018-07-21T23:27:44.648Z,6.07
2018-07-21T23:30:12.777Z,7.63
2018-07-21T23:32:41.051Z,8.70
2018-07-21T23:35:09.225Z,8.17
2018-07-21T23:37:37.369Z,7.00
2018-07-21T23:40:05.676Z,7.60
2018-07-21T23:42:33.916Z,7.20
2018-07-21T23:45:02.660Z,6.60
2018-07-21T23:47:31.027Z,7.53
2018-07-21T23:49:59.193Z,6.83
2018-07-21T23:52:27.509Z,7.80
2018-07-21T23:54:55.749Z,6.57
2018-07-21T23:57:24.003Z,8.50
2018-07-21T23:59:52.177Z,6.33
